Time;durP1;ratioP1;P1;durP2;ratioP2;P2;SDS_P1;SDS_P2;PMS_P1;PMS_P2;Temp;Humidity;BMP_temperature;BMP_pressure;BME280_temperature;BME280_humidity;BME280_pressure;Samples;Min_cycle;Max_cycle;Signal;HPM_P1;HPM_P2
2022/01/17 00:02:21;;;;;;;22.60;12.65;;;4.50;73.50;;;;;;4980698;28;20498;-69
2022/01/17 00:04:48;;;;;;;22.08;13.55;;;4.50;73.30;;;;;;4980555;28;20046;-69
2022/01/17 00:07:14;;;;;;;23.20;13.07;;;4.50;73.30;;;;;;4981056;28;20200;-69
2022/01/17 00:09:39;;;;;;;22.40;13.10;;;4.40;73.10;;;;;;4981255;28;20054;-69
2022/01/17 00:12:06;;;;;;;22.15;12.77;;;4.40;72.90;;;;;;4984381;28;20421;-69
2022/01/17 00:14:38;;;;;;;21.95;13.00;;;4.40;72.90;;;;;;4980681;28;20039;-69
2022/01/17 00:17:30;;;;;;;21.58;12.65;;;4.40;72.90;;;;;;4980056;28;20558;-68
2022/01/17 00:19:55;;;;;;;21.77;12.82;;;4.40;72.90;;;;;;4980954;28;20134;-68
2022/01/17 00:22:21;;;;;;;20.40;12.90;;;4.40;72.90;;;;;;4980907;28;20037;-69
2022/01/17 00:24:47;;;;;;;23.15;13.18;;;4.40;72.90;;;;;;4978755;28;20053;-69
2022/01/17 00:27:14;;;;;;;21.92;12.05;;;4.40;72.70;;;;;;4980565;28;20034;-69
2022/01/17 00:29:40;;;;;;;21.27;12.73;;;4.40;72.70;;;;;;4979488;28;20181;-69
2022/01/17 00:32:06;;;;;;;22.33;12.45;;;4.40;72.80;;;;;;4980525;28;20061;-69
2022/01/17 00:34:32;;;;;;;20.17;11.80;;;4.40;72.70;;;;;;4980050;28;20038;-69
2022/01/17 00:36:58;;;;;;;21.05;12.18;;;4.40;72.60;;;;;;4994837;28;20518;-70
2022/01/17 00:39:24;;;;;;;22.52;12.30;;;4.50;72.60;;;;;;4980322;28;20521;-69
2022/01/17 00:41:50;;;;;;;22.67;12.35;;;4.40;72.50;;;;;;4977381;28;20031;-69
2022/01/17 00:44:21;;;;;;;20.40;12.10;;;4.40;72.40;;;;;;4976328;28;20042;-69
2022/01/17 00:46:47;;;;;;;21.10;11.98;;;4.40;72.40;;;;;;4972754;28;20046;-68
2022/01/17 00:49:12;;;;;;;21.98;11.98;;;4.40;72.40;;;;;;4973963;28;20045;-68
2022/01/17 00:51:38;;;;;;;18.33;11.43;;;4.40;72.40;;;;;;4972715;28;20035;-69
2022/01/17 00:54:03;;;;;;;19.60;11.80;;;4.40;72.40;;;;;;4974890;28;20038;-69
2022/01/17 00:56:29;;;;;;;19.63;10.98;;;4.40;72.40;;;;;;4974869;28;20034;-67
2022/01/17 00:58:55;;;;;;;19.67;11.48;;;4.40;72.30;;;;;;4978685;28;20038;-69
2022/01/17 01:01:21;;;;;;;22.25;11.95;;;4.40;72.20;;;;;;4974164;28;20506;-68
2022/01/17 01:03:46;;;;;;;18.98;11.25;;;4.40;72.20;;;;;;4978522;28;20038;-69
2022/01/17 01:06:12;;;;;;;20.67;11.95;;;4.40;72.20;;;;;;4975420;28;20042;-69
2022/01/17 01:08:38;;;;;;;20.10;11.57;;;4.40;72.10;;;;;;4975653;28;20501;-68
2022/01/17 01:11:04;;;;;;;19.42;11.30;;;4.40;72.10;;;;;;4974197;28;20040;-69
2022/01/17 01:13:31;;;;;;;20.15;11.93;;;4.30;72.00;;;;;;4975172;28;20498;-69
2022/01/17 01:29:11;;;;;;;19.47;12.03;;;4.30;72.30;;;;;;4979251;28;20053;-69
2022/01/17 01:31:48;;;;;;;23.58;13.10;;;4.30;72.40;;;;;;4975248;28;21973;-68
2022/01/17 01:34:15;;;;;;;22.63;11.75;;;4.30;72.30;;;;;;4976543;28;20042;-69
2022/01/17 01:36:41;;;;;;;21.77;12.55;;;4.30;72.30;;;;;;4979353;28;20057;-69
2022/01/17 01:39:08;;;;;;;21.70;12.52;;;4.30;72.30;;;;;;4972951;28;20353;-68
2022/01/17 01:41:40;;;;;;;22.77;12.55;;;4.30;72.30;;;;;;4976819;28;20026;-68
2022/01/17 01:44:14;;;;;;;22.58;12.70;;;4.30;72.30;;;;;;4974298;28;20227;-69
2022/01/17 01:46:41;;;;;;;22.83;12.68;;;4.30;72.40;;;;;;4975358;28;20126;-69
2022/01/17 01:49:08;;;;;;;20.40;11.55;;;4.30;72.60;;;;;;4988762;28;20532;-69
2022/01/17 01:51:33;;;;;;;21.85;12.00;;;4.30;72.40;;;;;;4973773;28;20596;-68
2022/01/17 01:53:59;;;;;;;20.75;12.10;;;4.20;72.40;;;;;;4978281;28;20069;-70
2022/01/17 01:56:25;;;;;;;19.80;11.38;;;4.20;72.40;;;;;;4976601;28;20506;-69
2022/01/17 01:58:50;;;;;;;19.90;11.75;;;4.20;72.60;;;;;;4975426;28;20035;-69
2022/01/17 02:01:16;;;;;;;22.38;11.70;;;4.20;72.60;;;;;;4977600;28;20096;-69
2022/01/17 02:03:41;;;;;;;20.77;11.48;;;4.10;72.60;;;;;;4972926;28;20054;-68
2022/01/17 02:06:07;;;;;;;23.60;12.73;;;4.10;72.70;;;;;;4976726;28;20054;-68
2022/01/17 02:08:34;;;;;;;19.25;12.07;;;4.10;72.80;;;;;;4973206;28;20038;-68
2022/01/17 02:10:59;;;;;;;23.55;12.18;;;4.10;72.80;;;;;;4975267;28;20045;-69
2022/01/17 02:13:26;;;;;;;22.13;13.00;;;4.10;72.80;;;;;;4977161;28;20165;-69
2022/01/17 02:16:00;;;;;;;22.15;12.27;;;4.10;72.90;;;;;;4975672;28;20414;-69
2022/01/17 02:18:31;;;;;;;22.65;13.07;;;4.10;73.00;;;;;;4978006;28;20047;-70
2022/01/17 02:23:45;;;;;;;18.98;11.90;;;4.10;73.00;;;;;;4973293;28;20037;-69
2022/01/17 02:26:11;;;;;;;21.75;12.35;;;4.10;73.10;;;;;;4976305;28;20513;-69
2022/01/17 02:28:37;;;;;;;19.70;11.13;;;4.00;73.10;;;;;;4976103;28;21785;-68
2022/01/17 02:31:05;;;;;;;19.00;11.48;;;4.00;73.10;;;;;;4973560;28;20494;-69
2022/01/17 02:33:32;;;;;;;19.83;11.00;;;4.00;73.00;;;;;;4978019;28;20041;-69
2022/01/17 02:35:59;;;;;;;20.17;10.85;;;4.00;73.10;;;;;;4974112;28;20035;-69
2022/01/17 02:38:24;;;;;;;19.13;11.27;;;4.00;73.10;;;;;;4974670;28;20035;-70
2022/01/17 02:40:50;;;;;;;17.70;10.85;;;4.00;73.10;;;;;;4974168;28;20039;-69
2022/01/17 02:43:18;;;;;;;19.30;11.10;;;4.00;73.10;;;;;;4975423;28;20042;-69
2022/01/17 02:48:24;;;;;;;20.08;10.77;;;3.90;73.10;;;;;;4976072;28;20031;-69
2022/01/17 02:50:50;;;;;;;17.95;10.73;;;3.90;73.10;;;;;;4972332;28;20042;-69
2022/01/17 02:53:16;;;;;;;17.80;10.35;;;3.90;73.10;;;;;;4976208;28;20038;-69
2022/01/17 02:55:55;;;;;;;20.60;11.32;;;3.80;73.00;;;;;;4974059;28;20045;-69
2022/01/17 02:58:23;;;;;;;20.98;10.90;;;3.80;72.90;;;;;;4988340;28;20039;-69
2022/01/17 03:00:51;;;;;;;16.50;9.73;;;3.80;72.90;;;;;;4973951;28;20054;-69
2022/01/17 03:03:18;;;;;;;18.80;10.32;;;3.80;72.90;;;;;;4988325;28;20042;-69
2022/01/17 03:05:44;;;;;;;17.58;9.98;;;3.80;73.00;;;;;;4976033;28;20099;-69
2022/01/17 03:08:10;;;;;;;16.80;10.20;;;3.80;73.00;;;;;;4972444;28;20050;-69
2022/01/17 03:10:39;;;;;;;18.92;10.95;;;3.80;73.10;;;;;;4972977;28;20034;-67
2022/01/17 03:13:12;;;;;;;17.90;10.25;;;3.70;73.00;;;;;;4977829;28;20070;-68
2022/01/17 03:15:39;;;;;;;17.00;10.18;;;3.70;73.10;;;;;;4976292;28;20043;-67
2022/01/17 03:18:06;;;;;;;17.83;10.13;;;3.70;73.10;;;;;;4975687;28;20038;-67
2022/01/17 03:20:39;;;;;;;19.40;10.32;;;3.70;73.20;;;;;;4977663;28;20050;-68
2022/01/17 03:23:06;;;;;;;16.90;9.75;;;3.70;73.20;;;;;;4977565;28;20046;-68
2022/01/17 03:25:32;;;;;;;19.77;10.48;;;3.70;73.30;;;;;;4978078;28;20042;-69
2022/01/17 03:27:58;;;;;;;21.35;10.15;;;3.70;73.30;;;;;;4979264;28;20030;-69
2022/01/17 03:30:23;;;;;;;19.90;10.35;;;3.70;73.30;;;;;;4978761;28;20030;-69
2022/01/17 03:32:50;;;;;;;18.88;10.70;;;3.70;73.40;;;;;;4975716;28;20117;-69
2022/01/17 03:35:16;;;;;;;20.08;10.68;;;3.70;73.30;;;;;;4978781;28;20030;-69
2022/01/17 03:37:42;;;;;;;17.38;10.07;;;3.70;73.40;;;;;;4979533;28;20026;-69
2022/01/17 03:40:09;;;;;;;18.88;9.98;;;3.70;73.40;;;;;;4980374;28;20038;-70
2022/01/17 03:42:35;;;;;;;15.10;9.38;;;3.70;73.40;;;;;;4976544;28;20070;-69
2022/01/17 03:45:07;;;;;;;18.88;10.35;;;3.70;73.60;;;;;;4979534;28;20066;-69
2022/01/17 03:47:34;;;;;;;19.27;10.35;;;3.70;73.60;;;;;;4978264;28;20034;-68
2022/01/17 03:49:59;;;;;;;16.70;9.35;;;3.70;73.80;;;;;;4976029;28;20133;-69
2022/01/17 03:52:25;;;;;;;43.30;19.27;;;3.80;73.80;;;;;;4977949;28;20080;-69
2022/01/17 03:54:51;;;;;;;26.02;13.90;;;3.80;73.80;;;;;;4977585;28;20069;-69
2022/01/17 03:57:16;;;;;;;17.95;11.00;;;3.80;73.80;;;;;;4980469;28;20045;-69
2022/01/17 03:59:42;;;;;;;15.10;9.27;;;3.80;73.70;;;;;;4977453;28;20055;-69
2022/01/17 04:02:08;;;;;;;16.73;9.10;;;3.90;73.70;;;;;;4979793;28;20038;-69
2022/01/17 04:04:33;;;;;;;14.93;9.52;;;3.90;73.70;;;;;;4978361;28;20042;-69
2022/01/17 04:06:59;;;;;;;13.35;8.68;;;3.90;73.70;;;;;;4976252;28;20042;-69
2022/01/17 04:09:24;;;;;;;15.32;9.18;;;3.90;73.60;;;;;;4979180;28;20034;-69
2022/01/17 04:11:50;;;;;;;15.32;8.45;;;4.00;73.60;;;;;;4976500;28;20035;-69
2022/01/17 04:14:17;;;;;;;15.15;9.00;;;4.00;73.70;;;;;;4977670;28;21463;-69
2022/01/17 04:16:43;;;;;;;16.60;9.57;;;4.00;73.60;;;;;;4978213;28;20046;-69
2022/01/17 04:19:10;;;;;;;13.88;8.43;;;4.00;73.70;;;;;;4975643;28;20042;-69
2022/01/17 04:21:36;;;;;;;17.20;9.38;;;4.00;73.80;;;;;;4977664;28;20251;-68
2022/01/17 04:24:02;;;;;;;16.42;9.27;;;4.00;73.80;;;;;;4977097;28;20599;-69
2022/01/17 04:26:28;;;;;;;16.25;9.25;;;4.00;73.70;;;;;;4975334;28;20037;-69
2022/01/17 04:28:53;;;;;;;18.15;10.40;;;4.10;74.40;;;;;;4980152;28;20027;-69
2022/01/17 04:31:19;;;;;;;16.42;9.68;;;4.10;73.40;;;;;;4977691;28;20117;-68
2022/01/17 04:33:45;;;;;;;16.70;9.65;;;4.10;73.30;;;;;;4974143;28;20135;-69
2022/01/17 04:36:10;;;;;;;17.35;9.65;;;4.10;73.30;;;;;;4975155;28;20062;-69
2022/01/17 04:38:36;;;;;;;17.98;10.05;;;4.10;73.30;;;;;;4975408;28;20445;-68
2022/01/17 04:41:11;;;;;;;15.38;9.55;;;4.00;73.10;;;;;;4978372;28;20668;-68
2022/01/17 04:46:04;;;;;;;17.75;9.88;;;4.10;73.20;;;;;;4975901;28;20521;-69
2022/01/17 04:48:30;;;;;;;18.13;10.25;;;4.10;73.10;;;;;;4976927;28;20064;-67
2022/01/17 04:50:56;;;;;;;17.80;10.27;;;4.10;73.10;;;;;;4974263;28;20042;-69
2022/01/17 04:53:22;;;;;;;19.17;10.77;;;4.10;73.10;;;;;;4979894;28;20105;-69
2022/01/17 04:55:49;;;;;;;17.10;9.85;;;4.10;73.10;;;;;;4984830;28;20039;-69
2022/01/17 04:58:15;;;;;;;18.65;10.75;;;4.10;73.10;;;;;;4979023;28;20052;-69
2022/01/17 05:00:46;;;;;;;20.08;10.82;;;4.10;72.90;;;;;;4991813;28;20487;-69
2022/01/17 05:03:24;;;;;;;19.15;11.10;;;4.10;72.90;;;;;;4978359;28;20039;-69
2022/01/17 05:05:49;;;;;;;16.98;10.32;;;4.00;72.80;;;;;;4977832;28;20148;-69
2022/01/17 05:08:16;;;;;;;19.08;11.27;;;4.00;73.00;;;;;;4978094;28;20572;-69
2022/01/17 05:10:45;;;;;;;18.38;10.60;;;3.90;73.00;;;;;;4977791;28;20114;-69
2022/01/17 05:13:16;;;;;;;19.88;10.75;;;3.90;73.10;;;;;;4977729;28;20070;-69
2022/01/17 05:16:03;;;;;;;19.58;11.45;;;3.90;73.40;;;;;;4979238;28;20671;-69
2022/01/17 05:20:56;;;;;;;22.10;11.90;;;3.90;73.20;;;;;;4981067;28;20030;-69
2022/01/17 05:23:21;;;;;;;21.42;11.32;;;3.80;73.30;;;;;;4978354;28;20100;-69
2022/01/17 05:25:47;;;;;;;20.35;11.60;;;3.80;73.30;;;;;;4979576;28;20547;-69
2022/01/17 05:28:13;;;;;;;21.52;12.00;;;3.80;73.30;;;;;;4978082;28;20039;-69
2022/01/17 05:30:38;;;;;;;22.42;11.88;;;3.80;73.30;;;;;;4978512;28;20031;-69
2022/01/17 05:33:04;;;;;;;23.92;12.45;;;3.80;73.30;;;;;;4978792;28;20027;-69
2022/01/17 05:35:30;;;;;;;21.08;11.88;;;3.70;73.30;;;;;;4979199;28;20478;-69
2022/01/17 05:37:55;;;;;;;21.33;11.45;;;3.70;73.40;;;;;;4980113;28;20026;-69
2022/01/17 05:40:21;;;;;;;19.83;11.88;;;3.70;73.50;;;;;;4978362;28;20035;-69
2022/01/17 05:42:47;;;;;;;20.27;11.93;;;3.70;73.60;;;;;;4978442;28;20029;-69
2022/01/17 05:45:14;;;;;;;21.20;11.85;;;3.70;73.60;;;;;;4977661;28;20035;-69
2022/01/17 05:47:40;;;;;;;23.40;12.43;;;3.80;73.70;;;;;;4978035;28;20027;-69
2022/01/17 05:50:06;;;;;;;21.70;12.60;;;3.80;73.70;;;;;;4977585;28;20552;-69
2022/01/17 05:52:32;;;;;;;22.50;12.25;;;3.80;73.60;;;;;;4974854;28;20522;-69
2022/01/17 05:54:59;;;;;;;21.08;11.68;;;3.80;73.60;;;;;;4976069;28;20334;-69
2022/01/17 05:57:25;;;;;;;23.88;13.02;;;3.80;73.70;;;;;;4977187;28;20042;-70
2022/01/17 05:59:51;;;;;;;22.73;13.02;;;3.80;73.60;;;;;;4976057;28;20327;-69
2022/01/17 06:02:17;;;;;;;22.70;12.40;;;3.90;73.60;;;;;;4976501;28;20054;-69
2022/01/17 06:04:43;;;;;;;24.92;13.38;;;3.80;73.50;;;;;;4976093;28;20077;-67
2022/01/17 06:07:08;;;;;;;24.08;13.38;;;3.80;73.40;;;;;;4976678;28;20030;-69
2022/01/17 06:09:35;;;;;;;21.98;13.00;;;3.90;73.40;;;;;;4976431;28;20087;-68
2022/01/17 06:12:01;;;;;;;23.63;13.18;;;3.90;73.50;;;;;;4973162;28;20125;-69
2022/01/17 06:14:27;;;;;;;22.48;13.43;;;3.80;73.50;;;;;;4976982;28;20150;-69
2022/01/17 06:16:53;;;;;;;23.65;13.35;;;3.90;73.60;;;;;;4976017;28;20250;-70
2022/01/17 06:19:19;;;;;;;22.88;12.80;;;3.90;73.60;;;;;;4976175;28;20089;-69
2022/01/17 06:21:44;;;;;;;24.80;12.95;;;3.90;73.60;;;;;;4976097;28;21982;-69
2022/01/17 06:24:10;;;;;;;24.80;13.18;;;3.80;73.50;;;;;;4975980;28;20043;-69
2022/01/17 06:26:40;;;;;;;22.70;12.90;;;3.90;73.60;;;;;;4973998;28;20512;-69
2022/01/17 06:29:08;;;;;;;22.77;12.80;;;3.80;73.50;;;;;;4978401;28;20026;-70
2022/01/17 06:31:35;;;;;;;21.50;12.43;;;3.90;73.60;;;;;;4973421;28;20454;-69
2022/01/17 06:34:02;;;;;;;23.27;13.23;;;3.80;73.60;;;;;;4975659;28;20037;-70
2022/01/17 06:36:28;;;;;;;21.42;11.98;;;3.80;73.70;;;;;;4974645;28;20034;-70
2022/01/17 06:38:54;;;;;;;21.52;13.38;;;3.80;73.70;;;;;;4978269;28;20030;-68
2022/01/17 06:41:20;;;;;;;20.05;12.05;;;3.80;73.70;;;;;;4973680;28;20066;-70
2022/01/17 06:43:46;;;;;;;22.13;12.75;;;3.80;73.70;;;;;;4978203;28;20497;-69
2022/01/17 06:46:12;;;;;;;22.23;12.48;;;3.80;73.70;;;;;;4976056;28;20043;-68
2022/01/17 06:48:38;;;;;;;22.10;12.35;;;3.80;73.90;;;;;;4980588;28;20062;-69
2022/01/17 06:51:04;;;;;;;22.20;12.15;;;3.80;74.80;;;;;;4981983;28;20058;-69
2022/01/17 06:53:31;;;;;;;24.08;12.90;;;3.80;74.00;;;;;;4981652;28;20070;-69
2022/01/17 06:55:57;;;;;;;22.98;12.50;;;3.80;74.00;;;;;;4980460;28;20034;-69
2022/01/17 06:58:23;;;;;;;22.67;11.77;;;3.80;74.00;;;;;;4982878;28;20042;-69
2022/01/17 07:00:49;;;;;;;19.45;12.10;;;3.80;74.10;;;;;;4980589;28;20038;-69
2022/01/17 07:03:15;;;;;;;23.27;12.45;;;3.90;74.10;;;;;;4982217;28;20060;-69
2022/01/17 07:05:41;;;;;;;23.98;12.23;;;3.90;74.20;;;;;;4981298;28;20517;-69
2022/01/17 07:08:07;;;;;;;23.75;12.65;;;3.90;74.20;;;;;;4981880;28;20038;-68
2022/01/17 07:10:33;;;;;;;21.73;11.95;;;3.90;74.20;;;;;;4979773;28;20031;-68
2022/01/17 07:12:58;;;;;;;18.67;10.93;;;3.90;74.20;;;;;;4981843;28;20066;-69
2022/01/17 07:15:24;;;;;;;20.58;12.02;;;3.90;74.30;;;;;;4980680;28;20026;-69
2022/01/17 07:17:50;;;;;;;20.45;11.48;;;4.00;74.30;;;;;;4981846;28;20027;-69
2022/01/17 07:20:16;;;;;;;21.58;11.55;;;4.00;74.30;;;;;;4981070;28;20039;-68
2022/01/17 07:22:42;;;;;;;20.48;11.93;;;4.00;74.30;;;;;;4979936;28;20070;-69
2022/01/17 07:25:07;;;;;;;22.17;12.18;;;4.00;74.30;;;;;;4981195;28;20042;-69
2022/01/17 07:27:35;;;;;;;19.85;11.77;;;4.00;74.30;;;;;;4980613;28;20161;-69
2022/01/17 07:30:01;;;;;;;23.35;12.90;;;4.10;74.40;;;;;;4986211;28;20260;-69
2022/01/17 07:32:27;;;;;;;19.42;11.23;;;4.00;74.40;;;;;;4981604;28;20034;-70
2022/01/17 07:34:52;;;;;;;20.52;11.73;;;4.10;74.50;;;;;;4981180;28;20035;-69
2022/01/17 07:37:18;;;;;;;20.40;11.95;;;4.10;74.50;;;;;;4982107;28;20433;-69
2022/01/17 07:39:44;;;;;;;18.70;11.23;;;4.10;74.50;;;;;;4980851;28;20039;-69
2022/01/17 07:42:10;;;;;;;20.40;11.65;;;4.10;74.40;;;;;;4982247;28;20108;-70
2022/01/17 07:44:39;;;;;;;22.27;12.60;;;4.20;74.40;;;;;;4977969;28;20424;-69
2022/01/17 07:47:06;;;;;;;21.25;12.30;;;4.20;74.50;;;;;;4981576;28;20354;-69
2022/01/17 07:49:32;;;;;;;21.98;11.95;;;4.20;74.30;;;;;;4979220;28;20034;-68
2022/01/17 07:52:04;;;;;;;21.25;11.88;;;4.30;75.20;;;;;;4975638;28;20077;-69
2022/01/17 07:54:32;;;;;;;22.65;12.95;;;4.30;74.30;;;;;;4977117;28;20045;-67
2022/01/17 07:57:00;;;;;;;23.88;13.07;;;4.30;74.30;;;;;;4979153;28;20039;-70
2022/01/17 07:59:26;;;;;;;24.48;12.88;;;4.30;74.30;;;;;;4978810;28;20529;-70
2022/01/17 08:01:52;;;;;;;22.30;12.50;;;4.40;74.30;;;;;;4978656;28;20050;-69
2022/01/17 08:04:18;;;;;;;20.92;12.40;;;4.40;74.30;;;;;;4978885;28;20350;-69
2022/01/17 08:06:46;;;;;;;20.80;11.77;;;4.40;74.20;;;;;;4977211;28;20031;-69
2022/01/17 08:09:30;;;;;;;20.48;12.07;;;4.40;74.10;;;;;;4980211;28;20427;-69
2022/01/17 08:11:56;;;;;;;22.02;13.13;;;4.40;74.00;;;;;;4975288;28;20052;-69
2022/01/17 08:14:23;;;;;;;21.73;12.23;;;4.50;74.00;;;;;;4977262;28;20065;-68
2022/01/17 08:16:49;;;;;;;20.48;12.35;;;4.50;74.10;;;;;;4979564;28;21008;-69
2022/01/17 08:19:15;;;;;;;19.98;11.18;;;4.50;74.00;;;;;;4980752;28;20061;-69
2022/01/17 08:21:41;;;;;;;19.17;11.23;;;4.50;74.10;;;;;;4977756;28;20301;-69
2022/01/17 08:24:06;;;;;;;20.58;11.23;;;4.50;74.10;;;;;;4980457;28;20034;-67
2022/01/17 08:26:33;;;;;;;24.30;12.10;;;4.40;74.20;;;;;;4975858;28;20512;-70
2022/01/17 08:28:59;;;;;;;17.85;10.82;;;4.40;74.30;;;;;;4979938;28;20269;-69
2022/01/17 08:31:24;;;;;;;19.02;10.63;;;4.50;74.40;;;;;;4977210;28;20031;-70
2022/01/17 08:33:50;;;;;;;20.13;11.25;;;4.50;74.40;;;;;;4977308;28;20034;-69
2022/01/17 08:36:19;;;;;;;21.05;12.20;;;4.50;74.40;;;;;;4978026;28;20043;-68
2022/01/17 08:38:46;;;;;;;19.25;11.30;;;4.50;74.40;;;;;;4979103;28;20069;-69
2022/01/17 08:41:12;;;;;;;20.25;12.00;;;4.60;74.50;;;;;;4974148;28;20062;-69
2022/01/17 08:43:37;;;;;;;18.40;10.77;;;4.60;74.50;;;;;;4977235;28;20463;-69
2022/01/17 08:46:03;;;;;;;19.27;10.63;;;4.60;74.50;;;;;;4977302;28;20026;-69
2022/01/17 08:48:29;;;;;;;17.23;10.02;;;4.60;74.50;;;;;;4976724;28;20037;-69
2022/01/17 08:50:55;;;;;;;17.08;10.23;;;4.70;74.50;;;;;;4976560;28;20034;-70
2022/01/17 08:53:20;;;;;;;19.23;10.70;;;4.70;74.50;;;;;;4978605;28;20057;-69
2022/01/17 08:55:46;;;;;;;16.77;10.55;;;4.70;74.50;;;;;;4976585;28;20186;-69
2022/01/17 08:58:14;;;;;;;18.67;11.13;;;4.70;74.60;;;;;;4977914;28;20050;-69
2022/01/17 09:00:40;;;;;;;18.70;10.32;;;4.80;74.90;;;;;;4992141;28;20085;-70
2022/01/17 09:03:06;;;;;;;16.75;10.13;;;4.90;75.00;;;;;;4977505;28;20369;-69
2022/01/17 09:05:33;;;;;;;16.55;10.52;;;5.00;74.80;;;;;;4979645;28;20085;-69
2022/01/17 09:07:59;;;;;;;20.85;12.07;;;5.00;74.70;;;;;;4979753;28;20027;-68
2022/01/17 09:10:25;;;;;;;16.38;10.00;;;5.00;74.60;;;;;;4977424;28;20574;-69
2022/01/17 09:12:52;;;;;;;19.95;10.80;;;5.10;74.60;;;;;;4978322;28;20078;-69
2022/01/17 09:15:17;;;;;;;15.60;10.00;;;5.10;74.50;;;;;;4978230;28;20039;-69
2022/01/17 09:17:43;;;;;;;17.00;9.43;;;5.20;74.60;;;;;;4993949;28;20033;-69
2022/01/17 09:20:10;;;;;;;17.33;10.20;;;5.20;74.40;;;;;;4978773;28;20026;-69
2022/01/17 09:22:36;;;;;;;15.13;9.43;;;5.30;74.40;;;;;;4978306;28;20049;-69
2022/01/17 09:25:05;;;;;;;15.30;9.50;;;5.30;74.40;;;;;;4979045;28;20039;-69
2022/01/17 09:27:31;;;;;;;16.92;9.88;;;5.30;74.30;;;;;;4976437;28;20110;-69
2022/01/17 09:29:56;;;;;;;15.95;10.18;;;5.40;74.40;;;;;;4979050;28;20117;-69
2022/01/17 09:32:22;;;;;;;16.17;9.73;;;5.40;74.20;;;;;;4977056;28;20031;-69
2022/01/17 09:34:48;;;;;;;15.00;9.60;;;5.50;74.30;;;;;;4978033;28;20039;-69
2022/01/17 09:37:14;;;;;;;15.23;9.55;;;5.50;74.30;;;;;;4979816;28;20057;-69
2022/01/17 09:39:40;;;;;;;17.67;9.35;;;5.50;74.10;;;;;;4978188;28;20069;-70
2022/01/17 09:42:06;;;;;;;19.33;11.05;;;5.50;74.30;;;;;;4978847;28;20151;-69
2022/01/17 09:44:33;;;;;;;15.60;9.70;;;5.60;74.30;;;;;;4976729;28;20062;-69
2022/01/17 09:46:59;;;;;;;24.50;13.43;;;5.60;74.30;;;;;;4976998;28;20033;-69
2022/01/17 09:49:37;;;;;;;20.98;12.57;;;5.70;74.30;;;;;;4978663;28;20557;-69
2022/01/17 09:52:25;;;;;;;14.88;9.25;;;5.70;74.30;;;;;;4978775;28;20494;-69
2022/01/17 09:54:51;;;;;;;15.70;8.50;;;5.80;74.30;;;;;;4973987;28;20035;-70
2022/01/17 09:57:18;;;;;;;12.43;7.57;;;5.80;74.20;;;;;;4975580;28;20039;-69
2022/01/17 09:59:44;;;;;;;11.82;7.78;;;5.80;74.10;;;;;;4973331;28;20027;-69
2022/01/17 10:02:12;;;;;;;12.20;7.70;;;5.90;74.20;;;;;;4974937;28;20035;-69
2022/01/17 10:04:38;;;;;;;13.85;7.90;;;5.90;74.30;;;;;;4978708;28;20046;-68
2022/01/17 10:07:06;;;;;;;13.23;7.60;;;5.90;74.30;;;;;;4975394;28;20457;-69
2022/01/17 10:09:33;;;;;;;12.57;7.88;;;6.00;74.30;;;;;;4972379;28;20041;-69
2022/01/17 10:12:04;;;;;;;12.50;7.57;;;6.00;74.40;;;;;;4977399;28;20050;-69
2022/01/17 10:14:36;;;;;;;11.13;7.45;;;6.10;74.30;;;;;;4988757;28;20513;-69
2022/01/17 10:17:04;;;;;;;13.18;8.13;;;6.20;75.00;;;;;;4976220;28;20093;-69
2022/01/17 10:19:29;;;;;;;12.30;8.15;;;6.20;73.90;;;;;;4977921;28;20182;-69
2022/01/17 10:21:56;;;;;;;15.85;8.93;;;6.30;74.00;;;;;;4973631;28;20125;-69
2022/01/17 10:24:28;;;;;;;13.68;9.60;;;6.30;74.00;;;;;;4973574;28;20031;-70
2022/01/17 10:35:25;;;;;;;12.65;7.20;;;6.40;73.30;;;;;;4975344;28;19929;-69
2022/01/17 10:37:57;;;;;;;11.48;7.40;;;6.50;73.60;;;;;;4988105;28;20030;-69
2022/01/17 10:40:23;;;;;;;11.07;7.35;;;6.50;73.70;;;;;;4972239;28;20565;-69
2022/01/17 10:42:50;;;;;;;11.00;7.22;;;6.50;73.70;;;;;;4978310;28;20042;-69
2022/01/17 10:45:21;;;;;;;10.63;6.95;;;6.60;73.60;;;;;;4973531;28;20430;-69
2022/01/17 10:47:53;;;;;;;10.98;6.65;;;6.60;73.60;;;;;;4993495;28;20042;-69
2022/01/17 10:50:20;;;;;;;9.40;6.45;;;6.70;73.70;;;;;;4979698;28;20109;-69
2022/01/17 10:52:52;;;;;;;11.30;6.50;;;6.70;73.60;;;;;;4978811;28;20038;-69
2022/01/17 10:55:26;;;;;;;11.25;7.63;;;6.80;73.30;;;;;;4979504;28;20027;-70
2022/01/17 10:57:55;;;;;;;12.85;7.78;;;6.80;73.20;;;;;;4979217;28;20122;-69
2022/01/17 11:00:30;;;;;;;11.20;6.35;;;6.80;73.50;;;;;;4978725;28;20414;-68
2022/01/17 11:02:59;;;;;;;11.07;6.32;;;6.90;73.10;;;;;;4979241;28;20034;-69
2022/01/17 11:05:27;;;;;;;9.95;6.13;;;6.90;73.00;;;;;;4980312;28;20066;-69
2022/01/17 11:07:58;;;;;;;9.93;5.97;;;6.90;73.00;;;;;;4979248;28;20040;-69
2022/01/17 11:10:37;;;;;;;9.45;6.43;;;6.90;72.50;;;;;;4983799;28;20034;-70
2022/01/17 11:13:05;;;;;;;10.93;6.20;;;6.90;72.30;;;;;;4979161;28;20097;-69
2022/01/17 11:15:33;;;;;;;9.20;6.38;;;6.90;72.20;;;;;;4979124;28;20027;-70
2022/01/17 11:18:11;;;;;;;10.00;6.55;;;6.90;72.50;;;;;;4979010;28;20031;-69
2022/01/17 11:20:37;;;;;;;8.40;5.85;;;6.90;72.50;;;;;;4978301;28;20031;-69
2022/01/17 11:23:03;;;;;;;10.07;6.35;;;6.90;72.60;;;;;;4978786;28;20446;-70
2022/01/17 11:25:32;;;;;;;13.98;6.63;;;7.00;72.50;;;;;;4980153;28;20065;-69
2022/01/17 11:27:59;;;;;;;13.07;6.80;;;7.00;73.50;;;;;;4979175;28;20046;-69
2022/01/17 11:30:25;;;;;;;11.30;6.28;;;7.00;72.60;;;;;;4979420;28;20553;-70
2022/01/17 11:32:53;;;;;;;10.93;6.75;;;7.00;72.70;;;;;;4980464;28;20037;-69
2022/01/17 11:35:20;;;;;;;8.95;5.90;;;7.10;72.80;;;;;;4982699;28;20062;-69
2022/01/17 11:37:48;;;;;;;9.85;6.40;;;7.00;72.80;;;;;;4983235;28;20495;-69
2022/01/17 11:40:19;;;;;;;11.38;5.95;;;7.10;72.50;;;;;;4982031;28;20043;-69
2022/01/17 11:42:48;;;;;;;7.97;5.28;;;7.20;72.60;;;;;;4983823;28;20064;-69
2022/01/17 11:45:23;;;;;;;8.40;5.70;;;7.20;72.30;;;;;;4983365;28;20109;-69
2022/01/17 11:47:53;;;;;;;7.30;4.57;;;7.20;72.00;;;;;;4982703;28;20030;-69
2022/01/17 11:50:27;;;;;;;6.82;4.30;;;7.20;72.50;;;;;;4980469;28;20561;-69
2022/01/17 11:52:57;;;;;;;;;;;7.20;72.20;;;;;;4974904;28;20477;-70
2022/01/17 11:55:48;;;;;;;7.57;4.40;;;7.30;72.10;;;;;;4976367;28;20074;-69
2022/01/17 11:58:38;;;;;;;6.00;4.20;;;7.30;71.70;;;;;;4972738;28;20113;-69
2022/01/17 12:01:04;;;;;;;8.18;4.70;;;7.30;71.80;;;;;;4978656;28;20034;-69
2022/01/17 12:03:40;;;;;;;5.68;4.05;;;7.30;73.10;;;;;;4976842;28;20035;-67
2022/01/17 12:06:27;;;;;;;6.50;4.40;;;7.30;72.30;;;;;;4977092;28;20043;-69
2022/01/17 12:09:21;;;;;;;7.10;4.70;;;7.30;71.90;;;;;;4979551;28;20031;-69
2022/01/17 12:12:03;;;;;;;6.45;4.35;;;7.40;71.80;;;;;;4977907;28;20946;-69
2022/01/17 12:14:32;;;;;;;4.80;3.47;;;7.30;71.80;;;;;;4979413;28;20648;-69
2022/01/17 12:17:20;;;;;;;5.03;4.00;;;7.30;72.00;;;;;;4980426;28;20081;-69
2022/01/17 12:20:19;;;;;;;5.00;3.55;;;7.30;72.00;;;;;;4980576;28;20035;-69
2022/01/17 12:22:44;;;;;;;9.10;3.85;;;7.30;72.00;;;;;;4977553;28;20117;-69
2022/01/17 12:25:26;;;;;;;7.57;4.68;;;7.30;72.30;;;;;;4987450;28;20069;-69
2022/01/17 12:28:18;;;;;;;4.05;3.17;;;7.20;72.50;;;;;;4981808;28;20126;-69
2022/01/17 12:30:46;;;;;;;4.03;2.65;;;7.20;72.80;;;;;;4980368;28;20152;-68
2022/01/17 12:33:37;;;;;;;5.22;3.60;;;7.20;73.00;;;;;;4981524;28;20045;-69
2022/01/17 12:36:23;;;;;;;5.78;4.10;;;7.10;73.10;;;;;;4980637;28;20042;-69
2022/01/17 12:38:49;;;;;;;5.50;3.50;;;7.10;73.20;;;;;;4981141;28;20042;-69
2022/01/17 12:41:33;;;;;;;3.28;2.80;;;7.10;73.30;;;;;;4980502;28;20070;-69
2022/01/17 12:43:59;;;;;;;5.55;3.30;;;7.10;73.60;;;;;;4977398;28;20084;-69
2022/01/17 12:46:25;;;;;;;5.20;2.85;;;7.10;74.60;;;;;;4980756;28;20039;-69
2022/01/17 12:48:52;;;;;;;3.65;2.78;;;7.10;74.70;;;;;;4980276;28;20027;-69
2022/01/17 12:51:18;;;;;;;3.25;2.38;;;7.20;73.90;;;;;;4980300;28;20035;-69
2022/01/17 12:53:53;;;;;;;2.63;2.10;;;7.20;73.50;;;;;;4981195;28;20062;-69
2022/01/17 12:56:19;;;;;;;1.90;1.67;;;7.20;73.40;;;;;;4980168;28;20129;-69
2022/01/17 12:58:45;;;;;;;2.03;1.63;;;7.30;73.50;;;;;;4980027;28;20569;-69
2022/01/17 13:01:14;;;;;;;1.20;1.10;;;7.20;73.30;;;;;;4981948;28;20035;-69
2022/01/17 13:03:43;;;;;;;0.77;0.70;;;7.40;73.10;;;;;;4980718;28;20026;-67
2022/01/17 13:06:13;;;;;;;0.60;0.60;;;7.30;72.50;;;;;;4981264;28;20081;-69
2022/01/17 13:08:42;;;;;;;1.15;0.68;;;7.40;72.10;;;;;;4978473;28;20027;-68
2022/01/17 13:11:20;;;;;;;2.20;1.00;;;7.30;72.00;;;;;;4979673;28;20066;-69
2022/01/17 13:13:46;;;;;;;1.02;0.90;;;7.40;71.90;;;;;;4981339;28;20038;-69
2022/01/17 13:16:12;;;;;;;1.13;1.00;;;7.40;71.80;;;;;;4980090;28;20038;-69
2022/01/17 13:18:37;;;;;;;1.10;1.00;;;7.30;71.80;;;;;;4980072;28;20121;-68
2022/01/17 13:21:04;;;;;;;0.93;0.70;;;7.40;72.20;;;;;;4979882;28;20560;-69